INFORMAÇÕES DO AERODROMO
Icao Aerodromo SBBQ Nome do Aerodromo Major Brigadeiro Doorgal Borges Airport Cidade Barbacena
Código GPS SBBQ Elevação Média 3657 ft Tipo de Aerodromo Aeroporto Médio Porte

INFORMAÇÃO DE PISTA
Pista 18 Comprimento da Pista 5774 ft Largura da Pista 98 ft
Elevação da Pista 0 ft Distância de Area de Escape da Pista 0 ft Orientação da Pista 0
Pista 36 Comprimento da Pista 5774 ft Largura da Pista 98 ft
Elevação da Pista 0 ft Distância de Area de Escape da Pista 0 ft Orientação da Pista 0

FREQUÊNCIAS DO AERODROMO
Tipo AFIS Nome RDO Frequência 125.9 MHZ

INFORMAÇÕES DE NAVEGAÇÃO PRÓXIMO AO AERODROMO
Tipo NDB Nome Barbacena Frequência 285 KHZ

Informações de Meteorologia(METAR atual)
METAR DE SBBQ
ADDS - METARS form results

(1132 UTC 23 October 2019)
Data provider http://aviationweather.gov/metar/data/
 
METAR text: SBBQ 231100Z 15005KT 080V190 2000 -DZ OVC005 17/15 Q1022
Conditions at: SBBQ (BARBACENA (CIV/M, BR) observed 1100 UTC 23 October 2019
Temperature: 17.0°C (63°F)
Dewpoint: 15.0°C (59°F) [RH = 88%]
Pressure (altimeter): 30.18 inches Hg (1022.0 mb)
Winds: from the SSE (150 degrees) at 6 MPH (5 knots; 2.6 m/s)
Visibility: 1.24 miles (2.00 km)
Ceiling: 500 feet AGL
Clouds: overcast cloud deck at 500 feet AGL
Weather: -DZ  (light drizzle)

MAPA DO AERODROMO


Desenvolvido por Virtual Airlines Manager




Modificado por Servidor Brasil Amigos